Time;durP1;ratioP1;P1;durP2;ratioP2;P2;SDS_P1;SDS_P2;PMS_P1;PMS_P2;Temp;Humidity;BMP_temperature;BMP_pressure;BME280_temperature;BME280_humidity;BME280_pressure;Samples;Min_cycle;Max_cycle;Signal;HPM_P1;HPM_P2
2023/10/13 00:00:40;;;;;;;72.72;28.33;;;;;;;13.36;100.00;101005.44;4946768;28;20038;-77
2023/10/13 00:03:15;;;;;;;84.30;29.77;;;;;;;13.38;100.00;101001.00;4942320;28;20042;-77
2023/10/13 00:05:44;;;;;;;113.47;32.08;;;;;;;13.40;100.00;101010.72;4958458;28;20043;-77
2023/10/13 00:08:13;;;;;;;118.75;34.22;;;;;;;13.41;100.00;101004.53;4932802;28;20039;-77
2023/10/13 00:10:43;;;;;;;79.55;30.38;;;;;;;13.43;100.00;101002.75;4946149;28;20050;-77
2023/10/13 00:13:15;;;;;;;111.38;34.65;;;;;;;13.45;100.00;100993.03;4921263;28;20055;-77
2023/10/13 00:16:03;;;;;;;87.03;31.50;;;;;;;13.48;100.00;100992.13;4953787;28;20047;-77
2023/10/13 00:18:34;;;;;;;90.80;33.17;;;;;;;13.51;100.00;100996.53;4952664;28;20515;-77
2023/10/13 00:21:12;;;;;;;102.45;34.90;;;;;;;13.52;100.00;100993.00;4943504;28;20047;-77
2023/10/13 00:23:53;;;;;;;100.63;34.40;;;;;;;13.54;100.00;100991.22;4967867;28;20408;-77
2023/10/13 00:26:28;;;;;;;83.20;32.70;;;;;;;13.58;100.00;100985.00;4935505;28;20070;-77
2023/10/13 00:31:42;;;;;;;135.52;38.25;;;;;;;13.61;100.00;100967.34;4949431;28;20051;-77
2023/10/13 00:34:32;;;;;;;117.45;39.15;;;;;;;13.63;100.00;100962.91;4949528;28;20045;-77
2023/10/13 00:37:17;;;;;;;102.35;37.22;;;;;;;13.66;100.00;100964.63;4930468;28;20050;-77
2023/10/13 00:39:45;;;;;;;134.73;40.05;;;;;;;13.68;100.00;100951.41;4942954;28;20047;-77
2023/10/13 00:42:19;;;;;;;98.85;37.85;;;;;;;13.70;100.00;100953.13;4950505;28;20047;-77
2023/10/13 00:44:54;;;;;;;107.88;38.75;;;;;;;13.73;100.00;100954.91;4894390;28;20401;-77
2023/10/13 00:47:49;;;;;;;139.10;41.65;;;;;;;13.74;100.00;100952.25;4934163;28;20046;-77
2023/10/13 00:50:17;;;;;;;96.65;37.97;;;;;;;13.79;100.00;100955.69;4954561;28;20050;-78
2023/10/13 00:52:50;;;;;;;107.18;39.45;;;;;;;13.83;100.00;100946.84;4955525;28;20038;-77
2023/10/13 00:55:22;;;;;;;129.35;42.72;;;;;;;13.88;100.00;100957.41;4930419;28;20540;-76
2023/10/13 00:57:54;;;;;;;128.75;42.83;;;;;;;13.91;100.00;100944.13;4951915;28;20050;-76
2023/10/13 01:00:28;;;;;;;121.60;40.47;;;;;;;13.95;100.00;100943.22;4906676;28;24977;-76
2023/10/13 01:02:56;;;;;;;112.45;40.72;;;;;;;13.96;100.00;100944.09;4934355;28;20050;-76
2023/10/13 01:05:25;;;;;;;81.53;35.75;;;;;;;14.00;100.00;100938.72;4934928;28;20062;-77
2023/10/13 01:07:54;;;;;;;106.07;39.85;;;;;;;14.03;100.00;100943.16;4958216;28;20051;-77
2023/10/13 01:10:32;;;;;;;99.05;39.58;;;;;;;14.04;100.00;100935.19;4919273;28;20051;-77
2023/10/13 01:13:02;;;;;;;113.60;41.60;;;;;;;14.08;100.00;100935.13;4935176;28;20392;-77
2023/10/13 01:15:32;;;;;;;99.43;38.85;;;;;;;14.11;100.00;100933.34;4911301;28;20042;-77
2023/10/13 01:18:12;;;;;;;113.97;40.17;;;;;;;14.14;100.00;100933.31;4950661;28;20474;-77
2023/10/13 01:20:45;;;;;;;103.28;39.47;;;;;;;14.17;100.00;100927.97;4952987;28;20689;-78
2023/10/13 01:23:19;;;;;;;105.72;40.38;;;;;;;14.20;100.00;100921.78;4925068;28;20055;-78
2023/10/13 01:25:48;;;;;;;105.97;40.47;;;;;;;14.22;100.00;100912.91;4952600;28;20050;-78
2023/10/13 01:28:16;;;;;;;113.03;42.05;;;;;;;14.27;100.00;100912.84;4933944;28;20058;-78
2023/10/13 01:30:49;;;;;;;92.35;39.05;;;;;;;14.30;100.00;100910.16;4939446;28;20047;-78
2023/10/13 01:33:26;;;;;;;123.70;41.70;;;;;;;14.33;100.00;100896.88;4893236;28;20047;-78
2023/10/13 01:35:56;;;;;;;122.68;41.47;;;;;;;14.38;100.00;100900.34;4951082;28;20042;-78
2023/10/13 01:38:28;;;;;;;106.57;39.28;;;;;;;14.42;100.00;100895.88;4924223;28;20065;-78
2023/10/13 01:40:56;;;;;;;122.05;41.35;;;;;;;14.45;100.00;100892.34;4949847;28;20047;-78
2023/10/13 01:43:25;;;;;;;116.97;40.72;;;;;;;14.48;100.00;100895.84;4936780;28;20047;-78
2023/10/13 01:45:53;;;;;;;105.45;40.28;;;;;;;14.51;100.00;100887.81;4903832;28;20054;-77
2023/10/13 01:48:21;;;;;;;109.50;38.95;;;;;;;14.54;100.00;100884.28;4897409;28;20049;-77
2023/10/13 01:50:55;;;;;;;99.82;39.28;;;;;;;14.57;100.00;100869.25;4935620;28;20066;-77
2023/10/13 01:53:23;;;;;;;101.88;38.75;;;;;;;14.58;100.00;100865.69;4909516;28;20050;-77
2023/10/13 01:55:51;;;;;;;91.68;37.33;;;;;;;14.60;100.00;100865.66;4915313;29;20055;-77
2023/10/13 01:58:22;;;;;;;97.40;40.50;;;;;;;14.62;100.00;100859.44;4943843;28;20057;-77
2023/10/13 02:00:50;;;;;;;97.72;38.03;;;;;;;14.65;100.00;100860.28;4923447;28;20038;-77
2023/10/13 02:03:18;;;;;;;96.85;38.50;;;;;;;14.66;100.00;100852.31;4908764;28;20813;-77
2023/10/13 02:05:47;;;;;;;88.78;39.72;;;;;;;14.67;100.00;100846.13;4919139;28;20054;-77
2023/10/13 02:08:25;;;;;;;90.53;38.47;;;;;;;14.69;100.00;100844.31;4948034;28;20054;-77
2023/10/13 02:10:55;;;;;;;100.28;39.30;;;;;;;14.70;100.00;100834.59;4939316;28;20524;-77
2023/10/13 02:13:24;;;;;;;78.90;37.30;;;;;;;14.72;100.00;100832.78;4948908;28;20075;-77
2023/10/13 02:15:57;;;;;;;96.10;38.58;;;;;;;14.73;100.00;100832.78;4949359;28;20062;-77
2023/10/13 02:18:27;;;;;;;93.18;37.03;;;;;;;14.73;100.00;100829.25;4905531;28;20057;-77
2023/10/13 02:20:57;;;;;;;86.20;38.00;;;;;;;14.73;100.00;100819.50;4933934;28;20522;-76
2023/10/13 02:23:29;;;;;;;92.45;36.42;;;;;;;14.74;100.00;100809.75;4949763;28;20039;-77
2023/10/13 02:26:10;;;;;;;76.72;34.38;;;;;;;14.74;100.00;100807.13;4922392;28;20657;-77
2023/10/13 02:28:38;;;;;;;81.45;36.00;;;;;;;14.74;100.00;100802.69;4950075;28;20057;-77
2023/10/13 02:31:07;;;;;;;72.30;33.92;;;;;;;14.76;100.00;100806.22;4947709;28;20515;-77
2023/10/13 02:33:34;;;;;;;84.45;35.53;;;;;;;14.76;100.00;100807.97;4906311;28;20081;-76
2023/10/13 02:36:05;;;;;;;70.97;33.22;;;;;;;14.77;100.00;100813.25;4964180;28;20113;-77
2023/10/13 02:42:00;;;;;;;67.75;32.22;;;;;;;14.80;100.00;100799.06;4936369;28;20054;-76
2023/10/13 02:44:10;;;;;;;72.03;32.08;;;;;;;14.81;100.00;100791.09;4942254;28;20123;-77
2023/10/13 02:46:39;;;;;;;70.47;32.05;;;;;;;14.82;100.00;100792.84;4968732;28;20046;-76
2023/10/13 02:49:10;;;;;;;64.68;31.65;;;;;;;14.84;100.00;100786.63;4890257;28;20047;-76
2023/10/13 02:51:41;;;;;;;70.93;31.75;;;;;;;14.85;100.00;100780.44;4938952;28;20047;-77
2023/10/13 02:54:18;;;;;;;74.32;30.92;;;;;;;14.87;100.00;100781.28;4946122;28;20066;-77
2023/10/13 02:56:56;;;;;;;67.75;29.55;;;;;;;14.89;100.00;100780.34;4928718;28;20519;-77
2023/10/13 03:02:27;;;;;;;62.00;29.00;;;;;;;14.91;100.00;100762.63;4932458;28;20078;-77
2023/10/13 03:05:09;;;;;;;53.55;26.90;;;;;;;14.95;100.00;100766.09;4920374;28;20455;-76
2023/10/13 03:07:36;;;;;;;57.15;28.65;;;;;;;14.98;100.00;100766.06;4966782;28;20411;-77
2023/10/13 03:10:10;;;;;;;45.72;24.67;;;;;;;14.99;100.00;100763.41;4964281;28;20054;-77
2023/10/13 03:12:39;;;;;;;40.35;20.10;;;;;;;15.01;100.00;100756.28;4923698;28;20046;-77
2023/10/13 03:15:21;;;;;;;32.72;19.30;;;;;;;15.06;100.00;100760.63;4946330;28;20492;-77
2023/10/13 03:17:49;;;;;;;28.35;17.60;;;;;;;15.07;100.00;100757.97;4949266;28;20397;-77
2023/10/13 03:20:25;;;;;;;28.65;17.67;;;;;;;15.10;100.00;100755.22;4915475;28;20050;-77
2023/10/13 03:22:53;;;;;;;34.60;18.75;;;;;;;15.12;100.00;100744.59;4935854;28;20047;-77
2023/10/13 03:25:28;;;;;;;36.70;19.20;;;;;;;15.15;100.00;100747.22;4963049;28;20047;-77
2023/10/13 03:30:42;;;;;;;41.72;20.63;;;;;;;15.17;100.00;100740.09;4949475;28;20059;-77
2023/10/13 03:33:14;;;;;;;41.50;20.40;;;;;;;15.18;100.00;100731.25;4946126;28;20049;-77
2023/10/13 03:35:42;;;;;;;39.38;19.08;;;;;;;15.17;100.00;100733.00;4923357;28;20055;-76
2023/10/13 03:38:18;;;;;;;35.08;20.08;;;;;;;15.17;100.00;100714.41;4964482;28;20049;-77
2023/10/13 03:40:56;;;;;;;43.47;21.65;;;;;;;15.18;100.00;100716.19;4966604;28;20500;-77
2023/10/13 03:43:24;;;;;;;38.35;20.23;;;;;;;15.18;100.00;100710.00;4954820;28;20054;-77
2023/10/13 03:46:26;;;;;;;45.47;22.48;;;;;;;15.19;100.00;100696.69;4933023;28;20169;-77
2023/10/13 03:49:01;;;;;;;47.15;24.15;;;;;;;15.21;100.00;100702.84;4945044;28;20058;-77
2023/10/13 03:51:31;;;;;;;51.25;25.58;;;;;;;15.22;100.00;100698.44;4885936;28;20061;-77
2023/10/13 03:53:59;;;;;;;64.88;30.55;;;;;;;15.24;100.00;100682.47;4964515;28;20041;-77
2023/10/13 03:56:38;;;;;;;63.50;31.33;;;;;;;15.26;100.00;100683.31;4920837;28;20078;-77
2023/10/13 03:59:17;;;;;;;65.22;29.95;;;;;;;15.28;100.00;100670.91;4932527;28;20043;-77
2023/10/13 04:02:02;;;;;;;70.35;31.50;;;;;;;15.29;100.00;100670.88;4906435;28;20051;-76
2023/10/13 04:04:48;;;;;;;72.78;33.05;;;;;;;15.30;100.00;100661.13;4939188;28;20066;-77
2023/10/13 04:07:39;;;;;;;67.45;31.08;;;;;;;15.32;100.00;100660.16;4901117;28;20043;-77
2023/10/13 04:11:49;;;;;;;66.07;31.45;;;;;;;15.32;100.00;100646.03;4937604;28;20042;-77
2023/10/13 04:16:14;;;;;;;51.28;27.38;;;;;;;15.34;100.00;100638.91;4925394;28;20047;-77
2023/10/13 04:21:36;;;;;;;56.92;27.55;;;;;;;15.34;100.00;100625.63;4889130;28;20047;-77
2023/10/13 04:32:38;;;;;;;48.47;24.63;;;;;;;15.34;100.00;100593.78;4922776;28;20051;-77
2023/10/13 04:38:01;;;;;;;44.47;23.30;;;;;;;15.34;100.00;100570.75;4915288;28;20063;-76
2023/10/13 04:40:35;;;;;;;51.17;24.55;;;;;;;15.35;100.00;100576.97;4931268;28;20432;-77
2023/10/13 04:43:32;;;;;;;50.97;24.15;;;;;;;15.35;100.00;100563.69;4929839;29;20069;-77
2023/10/13 04:45:58;;;;;;;41.83;22.27;;;;;;;15.36;100.00;100557.44;4927887;28;20039;-77
2023/10/13 04:51:23;;;;;;;40.17;22.38;;;;;;;15.36;100.00;100545.03;4965744;28;20062;-77
2023/10/13 04:54:12;;;;;;;57.40;24.50;;;;;;;15.37;100.00;100537.97;4943524;28;23494;-77
2023/10/13 04:59:43;;;;;;;42.22;22.10;;;;;;;15.38;100.00;100521.13;4938593;28;20050;-77
2023/10/13 06:29:58;;;;;;;25.95;10.45;;;;;;;15.21;100.00;100389.63;4939929;28;20055;-77
2023/10/13 06:32:28;;;;;;;14.15;9.40;;;;;;;15.21;100.00;100381.66;4944285;28;20050;-77
2023/10/13 06:35:05;;;;;;;13.30;9.23;;;;;;;15.21;100.00;100383.47;4929772;28;20051;-77
2023/10/13 06:37:34;;;;;;;15.43;10.13;;;;;;;15.20;100.00;100381.72;4963912;28;20062;-77
2023/10/13 06:40:07;;;;;;;11.32;8.18;;;;;;;15.20;100.00;100374.63;4965625;28;20046;-76
2023/10/13 06:42:34;;;;;;;11.90;8.30;;;;;;;15.20;100.00;100368.47;4917621;28;20038;-76
2023/10/13 06:45:03;;;;;;;9.45;7.18;;;;;;;15.18;100.00;100368.50;4937092;28;20058;-76
2023/10/13 06:47:32;;;;;;;12.02;7.50;;;;;;;15.18;100.00;100375.59;4916259;28;20055;-77
2023/10/13 06:50:01;;;;;;;7.78;6.72;;;;;;;15.16;100.00;100361.47;4917989;28;20046;-77
2023/10/13 06:52:29;;;;;;;9.85;6.78;;;;;;;15.17;100.00;100357.91;4930985;28;20042;-76
2023/10/13 06:54:57;;;;;;;9.52;6.05;;;;;;;15.15;100.00;100352.63;4938643;28;20051;-77
2023/10/13 06:57:25;;;;;;;8.77;6.35;;;;;;;15.16;100.00;100354.38;4918595;28;20629;-77
2023/10/13 06:59:53;;;;;;;8.88;6.65;;;;;;;15.16;100.00;100350.84;4927106;28;20680;-76
2023/10/13 07:02:23;;;;;;;9.48;6.57;;;;;;;15.16;100.00;100346.44;4934873;28;20049;-76
2023/10/13 07:05:07;;;;;;;7.00;6.05;;;;;;;15.19;100.00;100353.44;4938388;28;20785;-78
2023/10/13 07:07:36;;;;;;;;;;;;;;;15.20;100.00;100352.53;4899897;28;20058;-77
2023/10/13 07:10:07;;;;;;;9.00;5.70;;;;;;;15.21;100.00;100349.81;4939242;28;20279;-76
2023/10/13 07:12:35;;;;;;;8.05;5.85;;;;;;;15.23;100.00;100349.78;4911584;28;20062;-77
2023/10/13 07:15:10;;;;;;;8.68;5.60;;;;;;;15.25;100.00;100347.09;4913831;28;20047;-77
2023/10/13 07:17:44;;;;;;;5.55;4.47;;;;;;;15.27;100.00;100350.59;4957837;28;20062;-77
2023/10/13 07:20:16;;;;;;;5.30;4.35;;;;;;;15.30;100.00;100354.06;4957263;28;20342;-77
2023/10/13 07:22:57;;;;;;;11.10;5.10;;;;;;;15.35;100.00;100361.91;4878745;28;20043;-76
2023/10/13 07:25:26;;;;;;;6.45;4.55;;;;;;;15.37;100.00;100350.34;4915495;28;20053;-78
2023/10/13 07:27:56;;;;;;;6.55;3.58;;;;;;;15.39;100.00;100348.53;4891335;28;20067;-76
2023/10/13 07:30:26;;;;;;;4.30;3.40;;;;;;;15.42;100.00;100338.72;4946973;28;20057;-77
2023/10/13 07:32:59;;;;;;;6.18;3.65;;;;;;;15.43;100.00;100340.50;4927631;28;20058;-77
2023/10/13 07:35:31;;;;;;;9.35;3.75;;;;;;;15.42;100.00;100341.38;4924417;28;20058;-77
2023/10/13 07:38:00;;;;;;;6.13;3.63;;;;;;;15.42;100.00;100338.72;4892969;28;20034;-77
2023/10/13 07:40:41;;;;;;;6.38;3.60;;;;;;;15.43;100.00;100332.53;4942064;28;20043;-77
2023/10/13 07:43:10;;;;;;;5.25;3.85;;;;;;;15.45;100.00;100336.00;4928504;28;20042;-77
2023/10/13 07:45:41;;;;;;;6.22;3.78;;;;;;;15.45;100.00;100333.34;4903855;28;20058;-79
2023/10/13 07:48:23;;;;;;;5.53;4.32;;;;;;;15.47;100.00;100342.16;4948118;28;20435;-77
2023/10/13 07:51:03;;;;;;;12.68;4.57;;;;;;;15.48;100.00;100331.50;4931152;28;20050;-78
2023/10/13 07:53:40;;;;;;;7.13;4.10;;;;;;;15.49;100.00;100333.22;4939451;28;20050;-79
2023/10/13 07:56:08;;;;;;;8.25;4.13;;;;;;;15.49;100.00;100322.59;4909536;28;20047;-78
2023/10/13 07:58:49;;;;;;;9.82;4.05;;;;;;;15.50;100.00;100329.69;4879192;28;20515;-77
2023/10/13 08:01:18;;;;;;;10.35;4.63;;;;;;;15.51;100.00;100335.84;4901573;28;20050;-77
2023/10/13 08:03:46;;;;;;;9.27;4.25;;;;;;;15.50;100.00;100318.16;4935590;28;20044;-77
2023/10/13 08:08:53;;;;;;;10.93;5.10;;;;;;;15.47;100.00;100284.59;4948859;28;20085;-76
2023/10/13 08:11:24;;;;;;;11.98;4.28;;;;;;;15.46;100.00;100277.53;4909346;28;20043;-76
2023/10/13 08:13:58;;;;;;;11.90;5.28;;;;;;;15.45;100.00;100267.84;4937765;28;20501;-77
2023/10/13 08:16:49;;;;;;;12.38;4.75;;;;;;;15.43;100.00;100264.34;4902197;28;20042;-76
2023/10/13 08:19:27;;;;;;;8.88;4.72;;;;;;;15.42;100.00;100259.09;4945678;28;20515;-77
2023/10/13 08:22:23;;;;;;;8.57;4.20;;;;;;;15.39;100.00;100252.94;4935875;28;20043;-77
2023/10/13 08:27:48;;;;;;;10.35;4.28;;;;;;;15.36;100.00;100255.66;4919980;28;20413;-77
2023/10/13 08:30:29;;;;;;;7.60;4.15;;;;;;;15.38;100.00;100245.88;4889955;28;20058;-77
2023/10/13 08:32:58;;;;;;;9.77;4.18;;;;;;;15.40;100.00;100237.88;4929921;28;20519;-77
2023/10/13 08:37:59;;;;;;;7.80;4.88;;;;;;;15.47;100.00;100223.53;4966207;28;20070;-77
2023/10/13 08:43:50;;;;;;;10.27;4.53;;;;;;;15.54;100.00;100201.22;4918719;28;20042;-77
2023/10/13 08:46:29;;;;;;;10.43;4.32;;;;;;;15.56;100.00;100204.69;4905274;28;20050;-76
2023/10/13 08:49:39;;;;;;;10.10;4.57;;;;;;;15.59;100.00;100196.66;4948726;28;20054;-77
2023/10/13 08:52:06;;;;;;;12.57;4.55;;;;;;;15.62;100.00;100192.19;4931163;28;20053;-77
2023/10/13 08:54:38;;;;;;;;;;;;;;;15.65;100.00;100197.38;4907922;28;20997;-77
2023/10/13 08:57:33;;;;;;;12.63;4.85;;;;;;;15.67;100.00;100184.91;4947183;28;19929;-76
2023/10/13 09:00:28;;;;;;;8.23;4.90;;;;;;;15.72;100.00;100186.53;4937970;28;20050;-77
2023/10/13 09:03:28;;;;;;;13.00;4.88;;;;;;;15.78;100.00;100177.56;4967278;28;20061;-77
2023/10/13 09:06:06;;;;;;;11.90;5.15;;;;;;;15.84;100.00;100180.06;4965476;28;20046;-77
2023/10/13 09:08:44;;;;;;;11.30;4.65;;;;;;;15.87;100.00;100158.69;4954716;28;20061;-77
2023/10/13 09:11:12;;;;;;;10.98;5.25;;;;;;;15.91;100.00;100155.03;4938988;28;20050;-77
2023/10/13 09:13:46;;;;;;;11.65;5.38;;;;;;;15.95;100.00;100139.88;4919026;28;20031;-77
2023/10/13 09:19:05;;;;;;;15.25;6.80;;;;;;;16.07;100.00;100128.00;4928056;29;20417;-77
2023/10/13 09:24:21;;;;;;;9.05;5.75;;;;;;;16.19;100.00;100090.41;4953295;28;20038;-77
2023/10/13 09:26:53;;;;;;;15.18;6.70;;;;;;;16.25;100.00;100130.06;4939337;28;20047;-77
2023/10/13 09:29:21;;;;;;;11.15;5.93;;;;;;;16.29;100.00;100118.41;4936339;28;20419;-77
2023/10/13 09:32:03;;;;;;;11.75;5.80;;;;;;;16.38;100.00;100126.09;4895233;28;20047;-77
2023/10/13 09:34:33;;;;;;;14.93;5.72;;;;;;;16.49;100.00;100114.25;4929248;28;20058;-76
2023/10/13 09:37:03;;;;;;;14.73;5.57;;;;;;;16.58;100.00;100098.00;4934434;28;20062;-77
2023/10/13 09:39:44;;;;;;;11.32;5.82;;;;;;;16.65;100.00;100102.16;4933031;28;20062;-77
2023/10/13 09:42:13;;;;;;;10.80;6.03;;;;;;;16.71;100.00;100091.34;4935672;28;20051;-77
2023/10/13 09:44:51;;;;;;;14.95;6.28;;;;;;;16.75;100.00;100097.44;4948860;28;20058;-76
2023/10/13 09:47:36;;;;;;;13.98;5.70;;;;;;;16.84;100.00;100082.94;4892549;28;20050;-77
2023/10/13 09:50:14;;;;;;;12.18;5.30;;;;;;;16.88;100.00;100074.81;4929801;28;20051;-77
2023/10/13 09:52:45;;;;;;;12.18;5.40;;;;;;;16.98;100.00;100075.38;4960129;28;20058;-76
2023/10/13 09:55:20;;;;;;;;;;;;;;;17.04;100.00;100080.47;4934770;28;20416;-76
2023/10/13 09:57:57;;;;;;;11.73;4.78;;;;;;;17.11;100.00;100074.00;4955216;28;19933;-76
2023/10/13 10:03:15;;;;;;;12.40;5.15;;;;;;;17.23;100.00;100080.66;4903070;28;20046;-77
2023/10/13 10:05:49;;;;;;;15.55;4.93;;;;;;;17.33;100.00;100060.78;4941704;28;20136;-77
2023/10/13 10:08:33;;;;;;;14.40;5.32;;;;;;;17.44;100.00;100073.66;4954190;28;20047;-77
2023/10/13 10:11:20;;;;;;;12.43;4.68;;;;;;;17.53;100.00;100083.97;4926903;28;20047;-76
2023/10/13 10:14:08;;;;;;;9.52;4.63;;;;;;;17.57;100.00;100084.75;4957807;28;20066;-77
2023/10/13 10:16:49;;;;;;;10.38;4.68;;;;;;;17.65;100.00;100073.78;4904085;28;20047;-77
2023/10/13 10:19:18;;;;;;;9.40;4.20;;;;;;;17.70;100.00;100053.19;4944192;28;20047;-77
2023/10/13 10:21:48;;;;;;;8.93;3.70;;;;;;;17.71;100.00;100078.88;4933221;28;20074;-77
2023/10/13 10:24:42;;;;;;;11.65;4.90;;;;;;;17.75;100.00;100072.53;4928878;28;20057;-77
2023/10/13 10:27:14;;;;;;;9.20;4.03;;;;;;;17.75;100.00;100059.19;4924716;28;20058;-77
2023/10/13 10:29:54;;;;;;;6.70;3.67;;;;;;;17.77;100.00;100054.69;4946216;28;20062;-77
2023/10/13 10:32:31;;;;;;;;;;;;;;;17.77;100.00;100054.69;4881638;28;20085;-77
2023/10/13 10:35:23;;;;;;;11.73;4.60;;;;;;;17.77;100.00;100049.34;4942217;28;20390;-77
2023/10/13 10:37:51;;;;;;;11.77;3.75;;;;;;;17.77;100.00;100046.69;4908516;28;20050;-77
2023/10/13 10:40:46;;;;;;;10.18;4.25;;;;;;;17.79;100.00;100049.25;4931003;28;20047;-77
2023/10/13 10:43:17;;;;;;;13.52;4.53;;;;;;;17.80;100.00;100051.88;4923326;28;21267;-77
2023/10/13 10:45:59;;;;;;;13.48;4.45;;;;;;;17.82;100.00;100034.03;4948202;28;20043;-77
2023/10/13 10:48:34;;;;;;;13.05;4.35;;;;;;;17.87;100.00;100008.09;4888209;28;20070;-77
2023/10/13 10:51:14;;;;;;;12.77;4.68;;;;;;;17.95;100.00;100006.94;4945831;28;20051;-77
2023/10/13 10:53:46;;;;;;;19.85;4.70;;;;;;;18.06;100.00;100008.22;4908429;28;20533;-77
2023/10/13 10:56:24;;;;;;;15.20;4.55;;;;;;;18.15;100.00;100001.66;4942645;28;20047;-77
2023/10/13 10:58:56;;;;;;;9.25;3.72;;;;;;;18.25;100.00;99978.13;4934177;28;20054;-78
2023/10/13 11:01:33;;;;;;;10.60;3.90;;;;;;;18.31;100.00;99986.72;4943566;28;20038;-77
2023/10/13 11:04:18;;;;;;;15.75;4.35;;;;;;;18.36;100.00;99973.19;4862591;28;20406;-77
2023/10/13 11:06:54;;;;;;;10.57;4.55;;;;;;;18.37;100.00;100012.25;4923477;29;20051;-77
2023/10/13 11:09:36;;;;;;;11.50;3.65;;;;;;;18.38;100.00;99986.47;4921400;28;20432;-76
2023/10/13 11:12:14;;;;;;;18.52;4.40;;;;;;;18.41;100.00;99979.22;4924215;29;20047;-77
2023/10/13 11:14:50;;;;;;;15.88;4.93;;;;;;;18.46;100.00;99973.66;4924704;28;20043;-80
2023/10/13 11:17:26;;;;;;;13.82;3.67;;;;;;;18.58;100.00;99967.81;4910364;29;20047;-78
2023/10/13 11:19:55;;;;;;;15.88;4.30;;;;;;;18.75;100.00;99966.19;4885261;28;20041;-79
2023/10/13 11:22:29;;;;;;;14.18;4.30;;;;;;;18.85;100.00;99965.72;4906608;29;20405;-77
2023/10/13 11:25:00;;;;;;;17.00;4.63;;;;;;;18.93;100.00;99985.88;4899325;29;20038;-77
2023/10/13 11:30:24;;;;;;;18.35;4.70;;;;;;;18.96;100.00;99957.25;4902105;28;19936;-77
2023/10/13 11:33:09;;;;;;;7.82;3.92;;;;;;;18.93;100.00;99951.19;4926527;29;20063;-77
2023/10/13 11:38:27;;;;;;;16.35;3.55;;;;;;;18.88;100.00;99962.06;4937040;28;20054;-77
2023/10/13 11:51:44;;;;;;;10.65;4.40;;;;;;;19.08;100.00;99966.50;4882798;29;21383;-76
2023/10/13 11:54:17;;;;;;;13.98;4.18;;;;;;;19.11;100.00;99954.78;4920567;29;20058;-76
2023/10/13 11:56:46;;;;;;;10.55;3.85;;;;;;;19.10;100.00;99945.94;4916216;29;20497;-76
2023/10/13 11:59:17;;;;;;;15.77;4.07;;;;;;;19.07;100.00;99932.69;4916581;28;20066;-77
2023/10/13 12:04:51;;;;;;;14.43;5.03;;;;;;;18.86;100.00;99921.22;4948772;28;20042;-76
2023/10/13 12:07:40;;;;;;;9.30;4.78;;;;;;;18.71;100.00;99925.41;4899181;28;20046;-77
2023/10/13 12:12:58;;;;;;;13.20;4.93;;;;;;;18.54;100.00;99928.84;4902322;28;20062;-77
2023/10/13 12:15:30;;;;;;;19.08;5.38;;;;;;;18.48;100.00;99934.44;4918379;28;20098;-76
2023/10/13 12:17:58;;;;;;;15.85;5.78;;;;;;;18.43;100.00;99923.09;4921793;28;20055;-76
2023/10/13 12:20:33;;;;;;;11.95;4.45;;;;;;;18.38;100.00;99930.47;4930260;28;20504;-77
2023/10/13 12:23:15;;;;;;;12.10;4.50;;;;;;;18.35;100.00;99927.91;4872446;28;20057;-76
2023/10/13 12:25:57;;;;;;;12.00;4.57;;;;;;;18.38;100.00;99918.00;4942062;28;20050;-77
2023/10/13 12:28:28;;;;;;;15.90;4.65;;;;;;;18.41;100.00;99907.19;4942740;28;20058;-77
2023/10/13 12:30:58;;;;;;;15.85;5.88;;;;;;;18.44;100.00;99912.38;4914583;28;20054;-76
2023/10/13 12:33:27;;;;;;;12.77;5.07;;;;;;;18.49;100.00;99920.19;4937760;28;20062;-76
2023/10/13 12:52:19;;;;;;;18.38;4.88;;;;;;;18.75;100.00;99913.69;4953847;28;20526;-78
2023/10/13 12:54:47;;;;;;;14.32;5.50;;;;;;;18.72;100.00;99923.63;4901232;28;20050;-77
2023/10/13 12:57:15;;;;;;;12.75;5.28;;;;;;;18.68;100.00;99923.75;4931702;28;20058;-77
2023/10/13 12:59:43;;;;;;;13.00;4.85;;;;;;;18.63;100.00;99920.44;4926721;28;20501;-77
2023/10/13 13:02:14;;;;;;;18.35;5.70;;;;;;;18.56;100.00;99921.63;4937075;28;20043;-79
2023/10/13 13:04:44;;;;;;;15.40;5.53;;;;;;;18.51;100.00;99911.19;4908274;28;20047;-80
2023/10/13 13:07:14;;;;;;;18.13;5.85;;;;;;;18.47;100.00;99927.41;4935331;28;20385;-80
2023/10/13 13:09:42;;;;;;;13.60;5.28;;;;;;;18.41;100.00;99917.88;4916655;28;20054;-79
2023/10/13 13:12:12;;;;;;;14.73;5.43;;;;;;;18.36;100.00;99903.00;4946310;28;20051;-80
2023/10/13 13:14:45;;;;;;;14.63;4.93;;;;;;;18.31;100.00;99903.19;4905758;28;20047;-80
2023/10/13 13:17:13;;;;;;;14.00;5.72;;;;;;;18.25;100.00;99904.31;4912833;28;20314;-80
2023/10/13 13:19:41;;;;;;;14.93;5.65;;;;;;;18.20;100.00;99910.78;4937097;28;20511;-80
2023/10/13 13:22:11;;;;;;;15.88;6.60;;;;;;;18.16;100.00;99907.38;4936739;28;20162;-79
2023/10/13 13:24:43;;;;;;;10.38;5.72;;;;;;;18.12;100.00;99892.44;4950612;28;20484;-78
2023/10/13 13:27:13;;;;;;;13.98;4.70;;;;;;;18.08;100.00;99893.53;4909178;28;20412;-78
2023/10/13 13:29:41;;;;;;;17.05;6.75;;;;;;;18.02;100.00;99878.66;4939557;28;20043;-78
2023/10/13 13:32:24;;;;;;;18.08;6.63;;;;;;;17.99;100.00;99876.13;4912311;28;20058;-78
2023/10/13 13:35:04;;;;;;;12.65;5.95;;;;;;;17.95;100.00;99865.66;4947707;28;20054;-77
2023/10/13 13:37:32;;;;;;;15.93;6.25;;;;;;;17.91;100.00;99852.47;4944570;28;20047;-78
2023/10/13 13:40:15;;;;;;;19.45;6.82;;;;;;;17.87;100.00;99864.19;4931656;28;20420;-79
2023/10/13 13:42:44;;;;;;;17.15;7.00;;;;;;;17.83;100.00;99878.53;4898590;28;20051;-78
2023/10/13 13:45:27;;;;;;;14.80;6.00;;;;;;;17.78;100.00;99880.53;4956356;28;20074;-78
2023/10/13 13:47:55;;;;;;;17.33;6.35;;;;;;;17.76;100.00;99869.06;4926695;28;20046;-78
2023/10/13 13:50:28;;;;;;;15.70;6.85;;;;;;;17.73;100.00;99861.19;4948183;28;20050;-78
2023/10/13 13:52:57;;;;;;;15.93;6.65;;;;;;;17.70;100.00;99862.19;4959519;28;20051;-78
2023/10/13 13:55:31;;;;;;;19.08;6.78;;;;;;;17.68;100.00;99857.88;4929706;28;20046;-78
2023/10/13 13:57:58;;;;;;;14.55;6.40;;;;;;;17.65;100.00;99845.53;4901723;28;20046;-78
2023/10/13 14:00:42;;;;;;;20.42;7.75;;;;;;;17.64;100.00;99845.63;4904857;28;20054;-78
2023/10/13 14:03:13;;;;;;;20.33;6.63;;;;;;;17.62;100.00;99856.34;4918493;28;20049;-79
2023/10/13 14:05:42;;;;;;;13.07;6.28;;;;;;;17.62;100.00;99848.34;4964596;28;20420;-84
2023/10/13 14:08:11;;;;;;;17.63;6.30;;;;;;;17.62;100.00;99845.69;4930432;28;20483;-77
2023/10/13 14:13:48;;;;;;;14.93;6.55;;;;;;;17.66;100.00;99838.44;4892407;28;20057;-78
2023/10/13 14:16:20;;;;;;;14.68;7.38;;;;;;;17.65;100.00;99836.69;4939817;28;20050;-78
2023/10/13 14:18:49;;;;;;;14.73;6.60;;;;;;;17.68;100.00;99832.09;4893574;28;24465;-79
2023/10/13 14:21:18;;;;;;;14.82;6.68;;;;;;;17.71;100.00;99815.09;4922166;28;20057;-78
2023/10/13 14:23:47;;;;;;;19.98;6.85;;;;;;;17.73;100.00;99805.25;4917887;28;20050;-77
2023/10/13 14:26:25;;;;;;;14.77;6.13;;;;;;;17.76;100.00;99818.44;4964976;28;20485;-77
2023/10/13 14:29:03;;;;;;;16.02;7.32;;;;;;;17.80;100.00;99820.03;4915571;28;20061;-78
2023/10/13 14:31:31;;;;;;;15.50;5.95;;;;;;;17.83;100.00;99803.94;4942090;28;20063;-78
2023/10/13 14:33:59;;;;;;;14.93;5.82;;;;;;;17.86;100.00;99805.63;4925218;28;20054;-77
2023/10/13 14:36:34;;;;;;;13.98;6.25;;;;;;;17.86;100.00;99825.16;4920677;28;20045;-77
2023/10/13 14:39:08;;;;;;;11.13;5.97;;;;;;;17.87;100.00;99832.22;4935002;28;20046;-78
2023/10/13 14:41:40;;;;;;;14.95;5.85;;;;;;;17.88;100.00;99822.41;4948773;28;20058;-77
2023/10/13 14:44:12;;;;;;;14.45;5.60;;;;;;;17.86;100.00;99827.81;4946767;28;20059;-77